Time;durP1;ratioP1;P1;durP2;ratioP2;P2;SDS_P1;SDS_P2;PMS_P1;PMS_P2;Temp;Humidity;BMP_temperature;BMP_pressure;BME280_temperature;BME280_humidity;BME280_pressure;Samples;Min_cycle;Max_cycle;Signal;HPM_P1;HPM_P2
2021/01/17 00:00:19;;;;;;;21.15;8.98;;;;;;;-4.12;100.00;97870.16;4997595;28;20055;-80
2021/01/17 00:02:52;;;;;;;16.83;7.55;;;;;;;-4.20;100.00;97860.69;5030230;28;20048;-80
2021/01/17 00:05:27;;;;;;;17.35;8.25;;;;;;;-4.22;100.00;97875.13;5014358;28;20148;-80
2021/01/17 00:07:54;;;;;;;21.42;8.80;;;;;;;-4.21;100.00;97867.00;5030661;28;20061;-80
2021/01/17 00:10:26;;;;;;;16.35;8.32;;;;;;;-4.06;100.00;97879.91;5048235;28;20042;-80
2021/01/17 00:12:53;;;;;;;18.60;8.40;;;;;;;-4.08;100.00;97869.53;5046795;28;20045;-79
2021/01/17 00:15:22;;;;;;;17.73;8.50;;;;;;;-4.10;100.00;97857.53;5030606;28;20041;-80
2021/01/17 00:17:49;;;;;;;19.90;8.57;;;;;;;-4.06;100.00;97867.50;5030473;28;20288;-80
2021/01/17 00:20:17;;;;;;;17.83;8.18;;;;;;;-4.10;100.00;97857.53;5014205;28;20057;-79
2021/01/17 00:22:44;;;;;;;14.23;7.07;;;;;;;-4.10;100.00;97858.34;5046634;28;20075;-80
2021/01/17 00:25:13;;;;;;;17.13;7.93;;;;;;;-4.10;100.00;97862.81;5047196;28;20050;-80
2021/01/17 00:27:39;;;;;;;17.23;8.30;;;;;;;-4.16;100.00;97837.28;5046324;28;20055;-80
2021/01/17 00:30:08;;;;;;;17.95;7.53;;;;;;;-4.13;100.00;97853.50;5045732;28;20339;-80
2021/01/17 00:32:37;;;;;;;18.00;7.90;;;;;;;-4.11;100.00;97854.13;5027339;28;20046;-80
2021/01/17 00:35:07;;;;;;;16.13;7.50;;;;;;;-4.14;100.00;97846.63;5043518;28;20092;-80
2021/01/17 00:37:33;;;;;;;16.10;7.10;;;;;;;-4.05;100.00;97852.44;5039153;28;20055;-80
2021/01/17 00:40:00;;;;;;;16.50;7.30;;;;;;;-4.06;100.00;97853.47;5039253;28;20049;-80
2021/01/17 00:42:29;;;;;;;16.70;8.07;;;;;;;-4.09;100.00;97846.78;5043286;28;20153;-79
2021/01/17 00:44:55;;;;;;;16.25;7.85;;;;;;;-4.08;100.00;97858.97;5013319;28;20053;-80
2021/01/17 00:47:21;;;;;;;17.02;7.50;;;;;;;-4.09;100.00;97854.69;5045276;28;20056;-80
2021/01/17 00:49:48;;;;;;;17.10;8.10;;;;;;;-4.11;100.00;97842.72;5046570;28;20056;-80
2021/01/17 00:52:22;;;;;;;16.08;7.38;;;;;;;-4.21;100.00;97832.66;5029177;28;20052;-80
2021/01/17 00:54:49;;;;;;;15.27;7.60;;;;;;;-4.16;100.00;97832.00;5028490;28;20105;-80
2021/01/17 00:57:16;;;;;;;17.23;7.93;;;;;;;-4.14;100.00;97843.16;5028960;28;20045;-80
2021/01/17 00:59:43;;;;;;;17.60;7.88;;;;;;;-4.15;100.00;97841.53;5046081;28;20071;-80
2021/01/17 01:02:09;;;;;;;17.65;8.07;;;;;;;-4.18;100.00;97834.84;5010963;28;20140;-80
2021/01/17 01:04:36;;;;;;;16.75;7.38;;;;;;;-4.20;100.00;97836.91;5029002;28;20034;-80
2021/01/17 01:07:03;;;;;;;16.15;7.32;;;;;;;-4.11;100.00;97834.81;5046420;28;20056;-79
2021/01/17 01:09:29;;;;;;;15.63;7.22;;;;;;;-4.12;100.00;97828.69;5028168;28;20049;-80
2021/01/17 01:11:55;;;;;;;15.60;7.70;;;;;;;-4.14;100.00;97832.59;5044266;28;20051;-80
2021/01/17 01:14:22;;;;;;;17.38;7.70;;;;;;;-4.11;100.00;97838.25;5045268;28;20049;-80
2021/01/17 01:16:52;;;;;;;16.95;8.20;;;;;;;-4.18;100.00;97826.91;5026461;28;20465;-80
2021/01/17 01:19:20;;;;;;;16.48;7.78;;;;;;;-4.17;100.00;97828.53;5027839;28;20088;-79
2021/01/17 01:21:47;;;;;;;17.10;7.10;;;;;;;-4.20;100.00;97807.81;5043854;28;20042;-80
2021/01/17 01:24:14;;;;;;;14.85;7.43;;;;;;;-4.29;100.00;97800.41;5027645;28;20041;-79
2021/01/17 01:26:43;;;;;;;18.25;8.40;;;;;;;-4.44;100.00;97801.53;5035152;28;20045;-79
2021/01/17 01:29:11;;;;;;;19.42;8.50;;;;;;;-4.67;100.00;97788.09;5051688;28;20053;-80
2021/01/17 01:31:39;;;;;;;22.20;8.30;;;;;;;-4.80;100.00;97788.19;5028466;28;20045;-79
2021/01/17 01:34:07;;;;;;;16.33;8.43;;;;;;;-4.89;100.00;97792.13;5027796;28;20278;-80
2021/01/17 01:36:38;;;;;;;17.50;8.10;;;;;;;-4.84;100.00;97800.19;5043800;28;20043;-80
2021/01/17 01:39:07;;;;;;;18.08;8.50;;;;;;;-4.82;100.00;97797.34;5042257;28;20051;-80
2021/01/17 01:41:38;;;;;;;21.65;9.05;;;;;;;-4.72;100.00;97795.06;5044652;28;20064;-80
2021/01/17 01:44:05;;;;;;;22.98;9.40;;;;;;;-4.70;100.00;97798.28;5040105;28;20048;-80
2021/01/17 01:46:32;;;;;;;20.77;9.63;;;;;;;-4.60;100.00;97791.50;5037364;28;20475;-80
2021/01/17 01:49:00;;;;;;;18.42;8.50;;;;;;;-4.61;100.00;97783.78;5026595;28;20076;-80
2021/01/17 01:51:29;;;;;;;20.05;8.75;;;;;;;-4.60;100.00;97782.78;5045015;28;20037;-79
2021/01/17 01:53:56;;;;;;;19.42;8.85;;;;;;;-4.59;100.00;97781.72;5013031;28;20049;-80
2021/01/17 01:56:24;;;;;;;19.65;8.50;;;;;;;-4.62;100.00;97769.75;5043106;28;20046;-80
2021/01/17 01:58:52;;;;;;;18.63;9.15;;;;;;;-4.53;100.00;97778.25;5027680;28;20322;-80
2021/01/17 02:01:19;;;;;;;18.17;8.45;;;;;;;-4.48;100.00;97781.03;5045249;28;20048;-80
2021/01/17 02:03:51;;;;;;;15.60;8.15;;;;;;;-4.48;100.00;97767.84;5045122;28;20038;-80
2021/01/17 02:06:22;;;;;;;18.08;8.38;;;;;;;-4.43;100.00;97778.56;5045118;28;20483;-79
2021/01/17 02:09:19;;;;;;;17.13;8.20;;;;;;;-4.36;100.00;97781.16;5045031;28;20041;-80
2021/01/17 02:12:13;;;;;;;18.27;8.75;;;;;;;-4.37;100.00;97776.88;5044764;28;20206;-79
2021/01/17 02:14:41;;;;;;;17.05;8.23;;;;;;;-4.43;100.00;97774.09;5011158;28;20045;-80
2021/01/17 02:17:14;;;;;;;19.98;9.07;;;;;;;-4.43;100.00;97763.53;5044352;28;20046;-79
2021/01/17 02:20:04;;;;;;;23.30;9.82;;;;;;;-4.42;100.00;97769.63;5045378;28;20045;-79
2021/01/17 02:22:35;;;;;;;20.65;9.23;;;;;;;-4.42;100.00;97751.13;5027227;28;20061;-79
2021/01/17 02:25:05;;;;;;;19.58;8.90;;;;;;;-4.36;100.00;97750.25;5026994;28;20503;-80
2021/01/17 02:27:32;;;;;;;21.38;9.30;;;;;;;-4.33;100.00;97755.09;5044807;28;20065;-80
2021/01/17 02:30:01;;;;;;;22.50;9.82;;;;;;;-4.37;100.00;97755.75;5026771;28;20049;-80
2021/01/17 02:32:30;;;;;;;18.65;9.45;;;;;;;-4.35;100.00;97748.41;5040168;28;20097;-79
2021/01/17 02:34:59;;;;;;;21.83;9.55;;;;;;;-4.37;100.00;97745.19;5025108;28;20048;-79
2021/01/17 02:37:52;;;;;;;17.60;8.80;;;;;;;-4.30;100.00;97743.28;5048225;28;20512;-80
2021/01/17 02:40:38;;;;;;;24.58;9.80;;;;;;;-4.31;100.00;97750.41;5048393;28;20041;-80
2021/01/17 02:43:07;;;;;;;19.50;8.38;;;;;;;-4.34;100.00;97731.53;5047839;28;20115;-80
2021/01/17 02:45:34;;;;;;;19.70;8.82;;;;;;;-4.36;100.00;97755.53;5048622;28;20045;-79
2021/01/17 02:48:01;;;;;;;19.08;8.73;;;;;;;-4.29;100.00;97753.66;5045117;28;20110;-79
2021/01/17 02:50:27;;;;;;;21.95;9.60;;;;;;;-4.27;100.00;97745.50;5040007;28;20051;-79
2021/01/17 02:53:33;;;;;;;22.70;9.68;;;;;;;-4.20;100.00;97756.81;5041605;28;20037;-80
2021/01/17 02:56:02;;;;;;;24.88;9.30;;;;;;;-4.23;100.00;97744.84;4998714;23;20573;-76
2021/01/17 02:58:29;;;;;;;22.58;9.85;;;;;;;-4.20;100.00;97751.50;4995172;28;20113;-76
2021/01/17 03:00:57;;;;;;;21.23;9.65;;;;;;;-4.19;100.00;97759.25;4997148;28;20093;-78
2021/01/17 03:03:38;;;;;;;19.48;8.88;;;;;;;-4.18;100.00;97752.13;4996374;28;20049;-75
2021/01/17 03:06:08;;;;;;;19.17;9.80;;;;;;;-4.20;100.00;97739.13;4996303;28;20042;-76
2021/01/17 03:08:36;;;;;;;20.92;9.38;;;;;;;-4.19;100.00;97759.25;4977895;28;20082;-75
2021/01/17 03:11:03;;;;;;;19.90;9.07;;;;;;;-4.25;100.00;97749.53;4994793;28;20089;-75
2021/01/17 03:13:31;;;;;;;21.30;9.75;;;;;;;-4.23;100.00;97759.91;4994903;28;20054;-77
2021/01/17 03:15:57;;;;;;;20.48;9.43;;;;;;;-4.17;100.00;97759.81;4994104;28;20050;-74
2021/01/17 03:18:24;;;;;;;19.85;9.48;;;;;;;-4.26;100.00;97745.28;4995716;28;20112;-74
2021/01/17 03:20:50;;;;;;;23.73;9.65;;;;;;;-4.19;100.00;97742.56;4980651;28;20042;-77
2021/01/17 03:23:17;;;;;;;19.77;8.70;;;;;;;-4.16;100.00;97753.53;4998337;28;20046;-76
2021/01/17 03:25:43;;;;;;;20.63;9.57;;;;;;;-4.11;100.00;97763.44;4980098;28;20046;-76
2021/01/17 03:28:10;;;;;;;21.48;9.55;;;;;;;-4.19;100.00;97748.69;4961459;28;20093;-75
2021/01/17 03:30:36;;;;;;;17.25;8.57;;;;;;;-4.12;100.00;97759.16;4995771;28;20046;-77
2021/01/17 03:33:02;;;;;;;19.75;8.95;;;;;;;-4.16;100.00;97740.31;4995188;28;20043;-76
2021/01/17 03:35:29;;;;;;;17.00;8.80;;;;;;;-4.16;100.00;97753.53;4994971;28;20062;-76
2021/01/17 03:37:57;;;;;;;19.38;9.38;;;;;;;-4.23;100.00;97736.13;4995601;28;20050;-76
2021/01/17 03:40:25;;;;;;;18.58;8.68;;;;;;;-4.15;100.00;97741.91;4977957;28;20153;-75
2021/01/17 03:42:53;;;;;;;20.23;8.65;;;;;;;-4.21;100.00;97744.63;4995543;28;20065;-75
2021/01/17 03:45:20;;;;;;;17.48;8.80;;;;;;;-4.23;100.00;97746.69;4966013;28;20054;-76
2021/01/17 03:47:46;;;;;;;17.88;9.45;;;;;;;-4.19;100.00;97758.44;4997070;28;20043;-76
2021/01/17 03:50:13;;;;;;;18.90;9.43;;;;;;;-4.22;100.00;97749.09;4979910;28;20051;-76
2021/01/17 03:52:40;;;;;;;18.98;9.02;;;;;;;-4.10;100.00;97747.34;4995186;28;20039;-76
2021/01/17 03:55:07;;;;;;;19.10;9.15;;;;;;;-3.98;100.00;97755.38;4995540;28;20047;-77
2021/01/17 03:57:33;;;;;;;21.15;9.43;;;;;;;-3.90;100.00;97742.66;4962946;28;20402;-77
2021/01/17 04:00:00;;;;;;;21.23;10.25;;;;;;;-3.89;100.00;97751.41;4978863;28;20050;-76
2021/01/17 04:02:28;;;;;;;20.25;9.82;;;;;;;-3.84;100.00;97754.19;4978945;28;20042;-76
2021/01/17 04:04:54;;;;;;;19.92;9.40;;;;;;;-3.86;100.00;97757.06;4978358;28;20046;-76
2021/01/17 04:07:20;;;;;;;19.83;9.80;;;;;;;-3.79;100.00;97734.00;4996137;28;20061;-77
2021/01/17 04:09:46;;;;;;;19.50;9.68;;;;;;;-3.68;100.00;97739.56;4995743;28;20050;-77
2021/01/17 04:12:13;;;;;;;20.10;9.52;;;;;;;-3.80;100.00;97750.09;4993952;28;20049;-75
2021/01/17 04:14:39;;;;;;;20.48;10.15;;;;;;;-3.86;100.00;97758.91;4994422;28;20057;-76
2021/01/17 04:17:05;;;;;;;18.80;9.57;;;;;;;-3.80;100.00;97755.38;4976508;28;20089;-76
2021/01/17 04:19:32;;;;;;;19.95;9.05;;;;;;;-3.80;100.00;97769.41;4993220;28;20078;-74
2021/01/17 04:21:58;;;;;;;23.45;9.77;;;;;;;-3.84;100.00;97765.56;4976697;28;20048;-76
2021/01/17 04:24:25;;;;;;;17.42;9.20;;;;;;;-3.73;100.00;97766.69;4991930;28;20516;-76
2021/01/17 04:27:02;;;;;;;20.17;9.43;;;;;;;-3.89;100.00;97757.50;4993792;28;20394;-76
2021/01/17 04:29:28;;;;;;;20.17;9.25;;;;;;;-4.03;100.00;97752.59;4993856;28;20054;-76
2021/01/17 04:31:55;;;;;;;21.50;9.82;;;;;;;-3.94;100.00;97762.63;4994015;28;20046;-75
2021/01/17 04:34:24;;;;;;;19.27;9.35;;;;;;;-3.94;100.00;97764.47;4993805;28;20046;-76
2021/01/17 04:36:51;;;;;;;20.05;9.15;;;;;;;-3.81;100.00;97767.78;4995004;28;20466;-75
2021/01/17 04:39:17;;;;;;;20.13;10.30;;;;;;;-3.91;100.00;97733.13;4995262;28;20053;-77
2021/01/17 04:41:45;;;;;;;19.10;9.68;;;;;;;-3.81;100.00;97762.50;4993598;28;20154;-77
2021/01/17 04:44:12;;;;;;;21.35;10.43;;;;;;;-3.72;100.00;97765.66;4994044;28;20046;-76
2021/01/17 04:46:39;;;;;;;23.20;10.32;;;;;;;-3.75;100.00;97767.94;4994427;28;20054;-75
2021/01/17 04:49:07;;;;;;;22.55;9.77;;;;;;;-3.77;100.00;97768.16;4994058;28;20086;-76
2021/01/17 04:51:34;;;;;;;20.17;9.85;;;;;;;-3.71;100.00;97758.50;4993935;28;20039;-76
2021/01/17 04:54:04;;;;;;;20.08;9.82;;;;;;;-3.62;100.00;97770.44;4994422;28;20051;-75
2021/01/17 04:56:37;;;;;;;20.05;9.60;;;;;;;-3.71;100.00;97767.25;4995389;28;20129;-76
2021/01/17 04:59:22;;;;;;;22.50;10.25;;;;;;;-3.83;100.00;97753.97;4975377;28;20046;-77
2021/01/17 05:01:51;;;;;;;21.77;9.82;;;;;;;-3.80;100.00;97761.47;4991006;28;20545;-76
2021/01/17 05:04:52;;;;;;;20.90;9.43;;;;;;;-3.82;100.00;97760.88;4992762;28;20042;-76
2021/01/17 05:07:23;;;;;;;19.15;9.68;;;;;;;-3.91;100.00;97756.91;4959936;28;20073;-76
2021/01/17 05:10:01;;;;;;;20.15;9.63;;;;;;;-3.96;100.00;97761.25;4993057;28;20460;-76
2021/01/17 05:12:50;;;;;;;19.23;9.98;;;;;;;-4.04;100.00;97756.25;4991603;28;20042;-76
2021/01/17 05:15:20;;;;;;;18.70;9.52;;;;;;;-4.10;100.00;97755.28;4992827;28;20069;-77
2021/01/17 05:17:47;;;;;;;22.17;9.88;;;;;;;-4.10;100.00;97757.91;4976287;28;20046;-76
2021/01/17 05:20:14;;;;;;;21.05;9.02;;;;;;;-4.18;100.00;97755.56;4993636;28;20053;-75
2021/01/17 05:22:43;;;;;;;23.38;9.90;;;;;;;-4.09;100.00;97753.44;4976299;28;20050;-76
2021/01/17 05:25:10;;;;;;;18.80;9.60;;;;;;;-4.17;100.00;97751.91;4975651;28;20057;-76
2021/01/17 05:27:38;;;;;;;20.20;9.60;;;;;;;-4.19;100.00;97763.72;4993128;28;20409;-76
2021/01/17 05:30:08;;;;;;;20.05;9.52;;;;;;;-4.17;100.00;97754.53;4993118;28;20060;-76
2021/01/17 05:32:34;;;;;;;23.23;9.73;;;;;;;-4.22;100.00;97764.16;4992393;28;20112;-76
2021/01/17 05:35:02;;;;;;;20.85;9.88;;;;;;;-4.20;100.00;97767.38;4976959;28;20049;-75
2021/01/17 05:37:31;;;;;;;21.38;9.90;;;;;;;-4.18;100.00;97766.13;4960440;28;20486;-76
2021/01/17 05:39:59;;;;;;;21.27;10.32;;;;;;;-4.23;100.00;97765.97;4975319;28;20081;-76
2021/01/17 05:42:30;;;;;;;21.38;10.15;;;;;;;-4.25;100.00;97760.09;4991732;28;20274;-76
2021/01/17 05:45:10;;;;;;;25.23;10.50;;;;;;;-4.31;100.00;97760.19;4975489;28;20050;-76
2021/01/17 05:47:37;;;;;;;18.30;9.00;;;;;;;-4.27;100.00;97761.34;4993330;28;20519;-76
2021/01/17 05:50:11;;;;;;;25.52;10.13;;;;;;;-4.35;100.00;97758.97;4992937;28;20049;-76
2021/01/17 05:52:37;;;;;;;20.77;9.55;;;;;;;-4.50;100.00;97746.13;4975256;28;20042;-76
2021/01/17 05:55:05;;;;;;;25.05;11.13;;;;;;;-4.38;100.00;97765.50;4992741;28;20054;-75
2021/01/17 05:57:33;;;;;;;22.33;10.43;;;;;;;-4.34;100.00;97769.34;4994859;28;20106;-76
2021/01/17 06:00:00;;;;;;;22.98;10.48;;;;;;;-4.35;100.00;97756.34;4995496;28;20451;-75
2021/01/17 06:02:30;;;;;;;19.73;9.75;;;;;;;-4.56;100.00;97754.91;4994297;28;20050;-76
2021/01/17 06:04:59;;;;;;;22.40;10.65;;;;;;;-4.59;100.00;97750.84;4993465;28;20097;-76
2021/01/17 06:07:26;;;;;;;22.98;10.35;;;;;;;-4.69;100.00;97758.44;4992731;28;20042;-76
2021/01/17 06:09:57;;;;;;;40.25;15.85;;;;;;;-4.73;100.00;97757.28;4991442;28;20466;-76
2021/01/17 06:12:31;;;;;;;23.17;10.80;;;;;;;-4.92;100.00;97760.84;4974878;28;20050;-76
2021/01/17 06:15:10;;;;;;;23.75;10.63;;;;;;;-5.13;100.00;97754.09;4991416;28;20046;-76
2021/01/17 06:17:39;;;;;;;24.05;11.73;;;;;;;-5.16;100.00;97743.16;4992216;28;20057;-76
2021/01/17 06:20:10;;;;;;;23.48;11.20;;;;;;;-5.24;100.00;97757.41;4996884;28;20050;-75
2021/01/17 06:22:37;;;;;;;24.65;11.02;;;;;;;-5.39;100.00;97772.69;4996964;28;20057;-76
2021/01/17 06:25:05;;;;;;;24.25;9.27;;;;;;;-5.86;100.00;97778.41;4994758;28;20054;-76
2021/01/17 06:27:32;;;;;;;24.48;10.30;;;;;;;-6.01;100.00;97768.09;4994381;28;20042;-76
2021/01/17 06:29:58;;;;;;;24.58;10.82;;;;;;;-5.92;100.00;97766.88;4975510;28;20548;-75
2021/01/17 06:32:29;;;;;;;25.13;9.93;;;;;;;-5.85;100.00;97780.00;4992881;28;20141;-75
2021/01/17 06:34:56;;;;;;;24.35;10.50;;;;;;;-5.82;100.00;97774.31;4976195;28;20054;-76
2021/01/17 06:37:24;;;;;;;21.42;10.10;;;;;;;-5.86;100.00;97767.88;4993090;28;20046;-75
2021/01/17 06:39:55;;;;;;;25.35;10.45;;;;;;;-5.77;100.00;97775.31;4992138;28;20062;-76
2021/01/17 06:42:23;;;;;;;26.60;10.55;;;;;;;-5.90;100.00;97771.91;4992307;28;20057;-76
2021/01/17 06:44:51;;;;;;;22.48;9.70;;;;;;;-5.99;100.00;97760.81;4991807;28;20513;-76
2021/01/17 06:47:28;;;;;;;17.77;8.73;;;;;;;-6.02;100.00;97773.59;5006148;28;20057;-76
2021/01/17 06:49:56;;;;;;;18.55;9.02;;;;;;;-6.21;100.00;97769.97;5011084;28;20057;-75
2021/01/17 06:52:22;;;;;;;20.98;8.70;;;;;;;-6.27;100.00;97770.00;4994340;28;20046;-75
2021/01/17 06:54:50;;;;;;;20.88;8.82;;;;;;;-6.57;100.00;97785.41;5011370;28;20050;-75
2021/01/17 06:57:18;;;;;;;21.50;9.25;;;;;;;-6.76;100.00;97762.53;5011989;28;20156;-75
2021/01/17 06:59:49;;;;;;;17.10;7.97;;;;;;;-6.92;100.00;97758.47;4994919;28;20056;-76
2021/01/17 07:02:15;;;;;;;22.90;9.93;;;;;;;-6.81;100.00;97775.50;4993872;28;20458;-76
2021/01/17 07:04:57;;;;;;;22.77;9.93;;;;;;;-7.30;100.00;97755.56;5007943;28;20054;-75
2021/01/17 07:07:48;;;;;;;26.85;9.55;;;;;;;-7.18;100.00;97798.72;4991325;28;20050;-75
2021/01/17 07:10:20;;;;;;;22.00;9.25;;;;;;;-7.21;100.00;97798.28;4992432;28;20046;-75
2021/01/17 07:13:05;;;;;;;22.58;8.55;;;;;;;-7.23;100.00;97790.59;4992082;28;20584;-75
2021/01/17 07:15:42;;;;;;;19.08;7.97;;;;;;;-7.35;100.00;97794.78;4992265;28;20042;-75
2021/01/17 07:18:11;;;;;;;27.33;9.90;;;;;;;-7.49;100.00;97785.25;4991494;28;20461;-75
2021/01/17 07:20:42;;;;;;;22.02;9.15;;;;;;;-7.45;100.00;97797.00;4991214;28;20050;-75
2021/01/17 07:23:13;;;;;;;27.02;9.60;;;;;;;-7.52;100.00;97784.84;5001488;28;20050;-74
2021/01/17 07:25:43;;;;;;;21.27;9.13;;;;;;;-7.83;100.00;97795.81;4984230;28;20046;-76
2021/01/17 07:28:13;;;;;;;25.27;9.20;;;;;;;-7.94;100.00;97802.44;5002483;28;20493;-75
2021/01/17 07:30:46;;;;;;;24.35;10.25;;;;;;;-7.85;100.00;97805.72;5004598;28;20105;-75
2021/01/17 07:33:15;;;;;;;25.63;9.90;;;;;;;-8.01;100.00;97813.91;5006849;28;20046;-74
2021/01/17 07:35:43;;;;;;;22.15;9.73;;;;;;;-7.94;100.00;97812.13;5005282;28;20053;-74
2021/01/17 07:38:23;;;;;;;27.73;9.63;;;;;;;-8.02;100.00;97809.66;5003738;28;20049;-75
2021/01/17 07:41:01;;;;;;;23.80;9.38;;;;;;;-7.93;100.00;97814.56;5001369;28;20046;-75
2021/01/17 07:43:30;;;;;;;21.05;9.35;;;;;;;-7.96;100.00;97822.84;4983043;28;20047;-74
2021/01/17 07:45:58;;;;;;;23.75;10.07;;;;;;;-7.93;100.00;97819.00;4999577;28;20043;-74
2021/01/17 07:48:25;;;;;;;22.08;8.77;;;;;;;-7.84;100.00;97820.47;4996597;28;20489;-75
2021/01/17 07:50:54;;;;;;;21.10;8.43;;;;;;;-8.07;100.00;97820.75;4979184;28;20046;-74
2021/01/17 07:53:39;;;;;;;23.08;9.52;;;;;;;-8.06;100.00;97824.19;4995051;28;20125;-75
2021/01/17 07:56:16;;;;;;;22.65;8.98;;;;;;;-7.91;100.00;97815.19;5003586;28;20428;-75
2021/01/17 07:58:50;;;;;;;23.20;8.95;;;;;;;-7.71;100.00;97826.59;4998516;28;20038;-75
2021/01/17 08:01:32;;;;;;;21.25;9.05;;;;;;;-7.55;100.00;97827.28;4994332;28;20042;-76
2021/01/17 08:04:01;;;;;;;23.02;8.93;;;;;;;-7.50;100.00;97830.94;4994038;28;20121;-75
2021/01/17 08:06:34;;;;;;;19.70;8.55;;;;;;;-7.47;100.00;97827.94;4993387;28;20049;-75
2021/01/17 08:09:07;;;;;;;20.27;9.02;;;;;;;-7.37;100.00;97817.84;5008480;28;20449;-76
2021/01/17 08:11:42;;;;;;;21.27;8.52;;;;;;;-7.23;100.00;97827.41;4994009;28;20043;-76
2021/01/17 08:14:23;;;;;;;22.05;8.82;;;;;;;-7.21;100.00;97827.19;4995315;28;20058;-75
2021/01/17 08:17:10;;;;;;;19.30;8.60;;;;;;;-6.98;100.00;97819.78;4994806;28;20051;-76
2021/01/17 08:19:40;;;;;;;20.60;9.32;;;;;;;-6.72;100.00;97826.91;4993507;28;20053;-76
2021/01/17 08:22:39;;;;;;;19.58;8.93;;;;;;;-6.37;100.00;97833.59;5009313;28;20058;-76
2021/01/17 08:25:07;;;;;;;18.83;8.63;;;;;;;-6.11;100.00;97825.66;4994429;28;20046;-76
2021/01/17 08:27:36;;;;;;;20.08;9.43;;;;;;;-5.44;100.00;97835.00;4993676;28;20514;-75
2021/01/17 08:30:08;;;;;;;22.33;9.50;;;;;;;-5.37;100.00;97839.25;4994922;28;20046;-77
2021/01/17 08:32:34;;;;;;;25.02;10.38;;;;;;;-4.64;100.00;97842.31;4995235;28;20039;-77
2021/01/17 08:35:19;;;;;;;20.27;9.25;;;;;;;-3.43;100.00;97846.91;4979194;28;20137;-77
2021/01/17 08:37:46;;;;;;;38.27;14.53;;;;;;;-2.13;100.00;97838.19;4995496;28;20134;-76
2021/01/17 08:40:38;;;;;;;22.75;10.02;;;;;;;-1.14;100.00;97849.66;4995142;28;20057;-76
2021/01/17 08:43:06;;;;;;;19.92;9.23;;;;;;;-0.66;100.00;97828.81;4989060;28;20050;-77
2021/01/17 08:45:48;;;;;;;21.88;9.57;;;;;;;-0.04;100.00;97837.59;4995524;28;20054;-76
2021/01/17 08:48:18;;;;;;;18.98;9.48;;;;;;;0.33;100.00;97846.69;4998313;28;20070;-76
2021/01/17 08:50:46;;;;;;;17.13;8.63;;;;;;;1.00;92.49;97850.00;4998065;28;20057;-76
2021/01/17 08:53:14;;;;;;;17.60;8.52;;;;;;;1.88;77.63;97836.22;4996750;28;20034;-76
2021/01/17 08:55:48;;;;;;;18.92;9.95;;;;;;;2.18;68.46;97841.00;5015114;23;20041;-78
2021/01/17 08:58:16;;;;;;;19.30;9.70;;;;;;;2.98;61.22;97850.56;5029188;28;20057;-78
2021/01/17 09:00:49;;;;;;;22.73;9.43;;;;;;;2.71;60.51;97849.91;5021396;28;20115;-76
2021/01/17 09:03:32;;;;;;;17.90;9.52;;;;;;;3.10;62.16;97851.94;5013402;28;20053;-78
2021/01/17 09:06:22;;;;;;;18.42;9.77;;;;;;;3.25;57.59;97848.53;5004528;28;20114;-78
2021/01/17 09:08:48;;;;;;;18.48;9.80;;;;;;;3.84;56.76;97848.94;5005210;28;20566;-77
2021/01/17 09:11:38;;;;;;;16.95;8.65;;;;;;;4.43;56.08;97851.06;5015186;28;20048;-78
2021/01/17 09:14:28;;;;;;;17.65;9.35;;;;;;;4.96;52.74;97848.53;5028892;28;20493;-77
2021/01/17 09:17:07;;;;;;;17.50;9.05;;;;;;;4.04;56.71;97853.50;5011074;28;20427;-77
2021/01/17 09:19:35;;;;;;;19.52;9.38;;;;;;;4.27;55.00;97855.66;5011311;28;20156;-79
2021/01/17 09:22:04;;;;;;;19.17;9.38;;;;;;;4.61;52.63;97861.25;5028457;28;20601;-78
2021/01/17 09:24:33;;;;;;;20.70;10.30;;;;;;;4.06;51.03;97865.56;5013197;28;20057;-78
2021/01/17 09:27:06;;;;;;;21.58;10.60;;;;;;;4.23;51.02;97876.81;5029202;28;20045;-79
2021/01/17 09:29:35;;;;;;;22.50;10.75;;;;;;;5.58;49.14;97882.09;5028636;28;20056;-77
2021/01/17 09:32:16;;;;;;;20.25;10.13;;;;;;;5.08;49.46;97876.94;5027775;28;20115;-78
2021/01/17 09:34:45;;;;;;;21.77;10.98;;;;;;;5.83;49.88;97884.66;5010923;28;20053;-78
2021/01/17 09:37:16;;;;;;;24.17;12.10;;;;;;;4.82;49.65;97868.97;5029268;28;20045;-78
2021/01/17 09:39:44;;;;;;;19.73;10.40;;;;;;;5.96;50.22;97875.22;5010856;28;20096;-78
2021/01/17 09:42:13;;;;;;;22.45;11.75;;;;;;;6.03;50.86;97879.19;5028934;28;20057;-78
2021/01/17 09:44:41;;;;;;;21.80;11.50;;;;;;;7.02;48.67;97880.44;5010852;28;20134;-78
2021/01/17 09:47:21;;;;;;;19.92;11.35;;;;;;;7.85;46.42;97882.66;5011915;28;20053;-78
2021/01/17 09:49:49;;;;;;;17.33;10.25;;;;;;;8.01;45.35;97870.56;5028879;28;20371;-79
2021/01/17 09:52:20;;;;;;;16.40;9.57;;;;;;;7.39;44.50;97887.84;5012557;28;20041;-77
2021/01/17 09:54:47;;;;;;;21.45;10.48;;;;;;;7.44;46.90;97882.38;5011399;28;20052;-80
2021/01/17 09:57:21;;;;;;;20.90;11.02;;;;;;;7.68;45.12;97882.34;5028960;28;20045;-80
2021/01/17 09:59:50;;;;;;;19.77;11.27;;;;;;;7.49;45.36;97888.50;5029450;28;20033;-78
2021/01/17 10:02:18;;;;;;;22.27;11.48;;;;;;;8.62;43.21;97881.22;5027249;28;20307;-78
2021/01/17 10:04:44;;;;;;;30.30;14.60;;;;;;;7.52;43.61;97884.44;5027576;28;20041;-78
2021/01/17 10:07:28;;;;;;;21.25;12.38;;;;;;;6.85;45.86;97885.47;5037449;28;20111;-78
2021/01/17 10:09:55;;;;;;;21.55;12.15;;;;;;;5.94;47.34;97880.84;5036888;28;20160;-77
2021/01/17 10:12:24;;;;;;;21.85;11.13;;;;;;;6.42;47.66;97875.66;5004367;28;20513;-77
2021/01/17 10:14:50;;;;;;;15.38;9.18;;;;;;;6.56;47.70;97887.34;5018157;28;20037;-78
2021/01/17 10:17:18;;;;;;;8.23;4.07;;;;;;;4.90;47.90;97883.72;5020622;28;20057;-78
2021/01/17 10:19:46;;;;;;;3.97;2.28;;;;;;;4.65;49.00;97879.19;5002898;28;20353;-78
2021/01/17 10:22:17;;;;;;;3.55;2.40;;;;;;;6.14;48.74;97880.69;5019370;28;20056;-78
2021/01/17 10:24:43;;;;;;;5.53;2.28;;;;;;;5.69;47.08;97894.41;5019777;28;20049;-78
2021/01/17 10:27:16;;;;;;;3.38;2.15;;;;;;;4.94;49.30;97893.63;5037644;28;20119;-77
2021/01/17 10:29:43;;;;;;;2.97;1.98;;;;;;;4.54;50.18;97891.03;5033285;28;20380;-77
2021/01/17 10:32:15;;;;;;;4.55;2.15;;;;;;;5.53;49.82;97898.22;5022091;28;20470;-78
2021/01/17 10:34:43;;;;;;;4.85;2.35;;;;;;;4.79;49.89;97884.81;5021936;28;20046;-76
2021/01/17 10:37:12;;;;;;;3.03;2.17;;;;;;;5.42;50.41;97892.09;5011297;28;20049;-76
2021/01/17 10:39:57;;;;;;;4.15;2.80;;;;;;;5.69;47.90;97889.03;5028231;28;20051;-76
2021/01/17 10:42:23;;;;;;;4.10;2.72;;;;;;;6.24;46.04;97896.78;5030337;28;20073;-76
2021/01/17 10:44:50;;;;;;;4.40;2.60;;;;;;;6.58;44.47;97888.69;5011677;28;20405;-75
2021/01/17 10:47:45;;;;;;;7.55;2.80;;;;;;;9.22;42.39;97898.22;5020664;28;20068;-76
2021/01/17 10:50:16;;;;;;;4.43;2.72;;;;;;;7.39;42.34;97895.91;5036368;28;20061;-79
2021/01/17 10:53:24;;;;;;;5.28;3.25;;;;;;;8.78;41.17;97894.16;5022561;28;20032;-77
2021/01/17 10:55:55;;;;;;;8.73;3.33;;;;;;;7.30;42.42;97893.03;4998976;28;20050;-78
2021/01/17 10:58:24;;;;;;;4.68;2.90;;;;;;;8.72;41.40;97891.84;5038173;28;20081;-78
2021/01/17 11:00:59;;;;;;;3.63;2.40;;;;;;;8.97;41.19;97894.09;5021144;28;20059;-78
2021/01/17 11:03:31;;;;;;;5.03;2.92;;;;;;;7.49;43.18;97903.88;5041186;28;20385;-79
2021/01/17 11:06:23;;;;;;;4.55;3.03;;;;;;;5.91;43.74;97902.88;5042033;28;20464;-79
2021/01/17 11:08:53;;;;;;;6.50;2.97;;;;;;;6.07;43.86;97899.03;5031671;28;20033;-79
2021/01/17 11:11:29;;;;;;;6.18;3.15;;;;;;;6.90;43.66;97902.38;5023507;28;20041;-77
2021/01/17 11:13:55;;;;;;;;;;;;;;;6.62;43.02;97905.06;5011453;28;20616;-79
2021/01/17 11:16:44;;;;;;;6.15;3.25;;;;;;;6.58;45.11;97910.19;5045910;28;19978;-78
2021/01/17 11:19:13;;;;;;;4.63;2.85;;;;;;;5.58;46.23;97908.94;5027082;28;20049;-79
2021/01/17 11:21:41;;;;;;;4.20;3.08;;;;;;;6.64;44.91;97900.19;5011974;28;20112;-77
2021/01/17 11:24:11;;;;;;;5.32;3.20;;;;;;;5.64;47.42;97915.91;5041368;28;20060;-78
2021/01/17 11:26:38;;;;;;;4.25;2.63;;;;;;;4.62;49.92;97900.41;5014693;28;20186;-79
2021/01/17 11:29:12;;;;;;;4.25;2.80;;;;;;;3.61;53.08;97898.41;5025649;28;20083;-77
2021/01/17 11:31:46;;;;;;;5.88;2.97;;;;;;;2.23;56.61;97904.31;5028151;28;20045;-78
2021/01/17 11:34:16;;;;;;;5.88;3.35;;;;;;;1.21;69.56;97905.13;5032733;28;20064;-79
2021/01/17 11:36:43;;;;;;;7.15;3.30;;;;;;;0.33;97.95;97894.63;5016210;28;20065;-78
2021/01/17 11:39:19;;;;;;;5.30;3.30;;;;;;;0.35;100.00;97895.16;5020718;28;20049;-78